sensor_id;sensor_type;location;lat;lon;timestamp;pressure;altitude;pressure_sealevel;temperature;humidity
71057;BME280;58380;48.312;9.246;2023-07-09T07:29:15;94165.22;;;24.49;59.48
71057;BME280;58380;48.312;9.246;2023-07-09T07:31:40;94134.75;;;24.48;57.49
71057;BME280;58380;48.312;9.246;2023-07-09T07:34:05;94117.81;;;24.72;56.31
71057;BME280;58380;48.312;9.246;2023-07-09T07:36:31;94131.16;;;25.02;56.11
71057;BME280;58380;48.312;9.246;2023-07-09T07:38:56;94184.31;;;25.59;54.93
71057;BME280;58380;48.312;9.246;2023-07-09T07:41:22;94113.06;;;25.27;53.75
71057;BME280;58380;48.312;9.246;2023-07-09T07:43:47;94131.81;;;25.73;52.09
71057;BME280;58380;48.312;9.246;2023-07-09T07:46:13;94145.66;;;25.83;47.14
71057;BME280;58380;48.312;9.246;2023-07-09T07:48:38;94136.22;;;25.65;45.99
71057;BME280;58380;48.312;9.246;2023-07-09T07:51:04;94173.72;;;25.91;46.64
71057;BME280;58380;48.312;9.246;2023-07-09T07:53:30;94179.44;;;26.02;45.22
71057;BME280;58380;48.312;9.246;2023-07-09T07:55:57;94140.25;;;25.83;45.31
71057;BME280;58380;48.312;9.246;2023-07-09T07:58:23;94123.56;;;25.81;45.34
71057;BME280;58380;48.312;9.246;2023-07-09T08:00:49;94135.72;;;26.00;44.97
71057;BME280;58380;48.312;9.246;2023-07-09T08:03:14;94170.56;;;26.30;45.77
71057;BME280;58380;48.312;9.246;2023-07-09T08:05:40;94178.97;;;26.40;46.38
71057;BME280;58380;48.312;9.246;2023-07-09T08:08:05;94120.72;;;26.02;44.62
71057;BME280;58380;48.312;9.246;2023-07-09T08:10:31;94149.63;;;26.27;45.63
71057;BME280;58380;48.312;9.246;2023-07-09T08:12:56;94133.63;;;26.21;44.77
71057;BME280;58380;48.312;9.246;2023-07-09T08:15:25;94131.28;;;26.36;44.57
71057;BME280;58380;48.312;9.246;2023-07-09T08:17:51;94111.69;;;26.39;42.02
71057;BME280;58380;48.312;9.246;2023-07-09T08:20:17;94064.34;;;26.04;43.25
71057;BME280;58380;48.312;9.246;2023-07-09T08:22:43;94146.66;;;26.60;43.38
71057;BME280;58380;48.312;9.246;2023-07-09T08:25:08;94125.28;;;26.42;42.21
71057;BME280;58380;48.312;9.246;2023-07-09T08:27:34;94153.06;;;26.67;42.72
71057;BME280;58380;48.312;9.246;2023-07-09T08:29:59;94183.16;;;26.94;43.10
71057;BME280;58380;48.312;9.246;2023-07-09T08:32:25;94132.03;;;26.77;43.13
71057;BME280;58380;48.312;9.246;2023-07-09T08:34:50;94147.84;;;26.90;43.50
71057;BME280;58380;48.312;9.246;2023-07-09T08:37:16;94146.88;;;26.83;41.73
71057;BME280;58380;48.312;9.246;2023-07-09T08:39:41;94139.31;;;26.88;42.57
71057;BME280;58380;48.312;9.246;2023-07-09T08:42:10;94177.03;;;27.13;43.32
71057;BME280;58380;48.312;9.246;2023-07-09T08:47:29;94180.50;;;27.26;41.50
71057;BME280;58380;48.312;9.246;2023-07-09T08:50:39;94174.84;;;27.31;41.70
71057;BME280;58380;48.312;9.246;2023-07-09T08:53:18;94170.63;;;27.34;42.13
71057;BME280;58380;48.312;9.246;2023-07-09T08:55:53;94162.47;;;27.49;45.79
71057;BME280;58380;48.312;9.246;2023-07-09T08:58:26;94157.91;;;27.69;41.42
71057;BME280;58380;48.312;9.246;2023-07-09T09:01:01;94170.53;;;27.97;43.08
71057;BME280;58380;48.312;9.246;2023-07-09T09:06:12;94125.28;;;28.01;42.89
71057;BME280;58380;48.312;9.246;2023-07-09T09:09:24;94183.47;;;28.58;42.97
71057;BME280;58380;48.312;9.246;2023-07-09T09:12:15;94178.19;;;28.66;40.08
71057;BME280;58380;48.312;9.246;2023-07-09T09:14:52;94183.38;;;28.74;40.70
71057;BME280;58380;48.312;9.246;2023-07-09T09:17:23;94172.38;;;28.67;37.47
71057;BME280;58380;48.312;9.246;2023-07-09T09:19:56;94172.56;;;28.78;37.59
71057;BME280;58380;48.312;9.246;2023-07-09T09:22:42;94182.94;;;28.72;37.93
71057;BME280;58380;48.312;9.246;2023-07-09T09:25:23;94180.81;;;28.62;37.50
71057;BME280;58380;48.312;9.246;2023-07-09T09:27:54;94178.53;;;28.45;36.58
71057;BME280;58380;48.312;9.246;2023-07-09T09:30:22;94178.25;;;28.50;37.61
71057;BME280;58380;48.312;9.246;2023-07-09T09:33:02;94179.47;;;28.52;38.52
71057;BME280;58380;48.312;9.246;2023-07-09T09:35:37;94180.66;;;28.55;37.39
71057;BME280;58380;48.312;9.246;2023-07-09T09:38:15;94170.88;;;28.50;37.45
71057;BME280;58380;48.312;9.246;2023-07-09T09:40:43;94158.63;;;28.40;36.29
71057;BME280;58380;48.312;9.246;2023-07-09T09:43:15;94185.66;;;28.53;36.85
71057;BME280;58380;48.312;9.246;2023-07-09T09:45:45;94156.72;;;28.41;37.13
71057;BME280;58380;48.312;9.246;2023-07-09T09:48:18;94148.63;;;28.25;35.68
71057;BME280;58380;48.312;9.246;2023-07-09T09:50:53;94173.97;;;28.49;38.31
71057;BME280;58380;48.312;9.246;2023-07-09T09:53:23;94165.88;;;28.52;36.27
71057;BME280;58380;48.312;9.246;2023-07-09T09:55:53;94193.22;;;28.82;36.63
71057;BME280;58380;48.312;9.246;2023-07-09T09:58:26;94143.50;;;28.59;36.64
71057;BME280;58380;48.312;9.246;2023-07-09T10:00:55;94180.25;;;28.95;38.15
71057;BME280;58380;48.312;9.246;2023-07-09T10:03:33;94155.03;;;28.95;37.65
71057;BME280;58380;48.312;9.246;2023-07-09T10:15:00;94151.25;;;29.22;36.51
71057;BME280;58380;48.312;9.246;2023-07-09T10:17:38;94159.16;;;29.31;37.07
71057;BME280;58380;48.312;9.246;2023-07-09T10:20:34;94176.00;;;29.40;35.33
71057;BME280;58380;48.312;9.246;2023-07-09T10:25:48;94178.72;;;29.40;37.87
71057;BME280;58380;48.312;9.246;2023-07-09T10:28:23;94175.34;;;29.47;34.68
71057;BME280;58380;48.312;9.246;2023-07-09T10:31:35;94166.31;;;29.43;33.35
71057;BME280;58380;48.312;9.246;2023-07-09T10:34:28;94154.56;;;29.35;32.20
71057;BME280;58380;48.312;9.246;2023-07-09T10:40:13;94145.75;;;29.19;32.75
71057;BME280;58380;48.312;9.246;2023-07-09T10:42:46;94167.13;;;29.43;35.80
71057;BME280;58380;48.312;9.246;2023-07-09T10:45:30;94149.31;;;29.46;37.47
71057;BME280;58380;48.312;9.246;2023-07-09T10:48:16;94165.47;;;29.62;35.03
71057;BME280;58380;48.312;9.246;2023-07-09T10:50:47;94165.81;;;29.60;33.83
71057;BME280;58380;48.312;9.246;2023-07-09T10:53:28;94140.75;;;29.48;34.36
71057;BME280;58380;48.312;9.246;2023-07-09T10:56:10;94162.53;;;29.48;34.30
71057;BME280;58380;48.312;9.246;2023-07-09T11:01:50;94149.00;;;29.51;35.12
71057;BME280;58380;48.312;9.246;2023-07-09T11:04:39;94156.94;;;29.63;30.66
71057;BME280;58380;48.312;9.246;2023-07-09T11:07:14;94110.34;;;29.38;30.79
71057;BME280;58380;48.312;9.246;2023-07-09T11:09:46;94129.75;;;29.63;33.86
71057;BME280;58380;48.312;9.246;2023-07-09T11:12:24;94137.66;;;29.72;32.26
71057;BME280;58380;48.312;9.246;2023-07-09T11:14:58;94120.00;;;29.62;33.28
71057;BME280;58380;48.312;9.246;2023-07-09T11:17:39;94119.16;;;29.85;34.23
71057;BME280;58380;48.312;9.246;2023-07-09T11:20:18;94131.53;;;30.05;35.33
71057;BME280;58380;48.312;9.246;2023-07-09T11:23:02;94126.78;;;30.02;34.60
71057;BME280;58380;48.312;9.246;2023-07-09T11:25:42;94104.78;;;29.84;33.58
71057;BME280;58380;48.312;9.246;2023-07-09T11:28:09;94104.03;;;29.87;33.17
71057;BME280;58380;48.312;9.246;2023-07-09T11:31:08;94131.22;;;30.14;33.82
71057;BME280;58380;48.312;9.246;2023-07-09T11:34:26;94138.72;;;30.21;34.31
71057;BME280;58380;48.312;9.246;2023-07-09T11:42:01;94093.09;;;30.14;29.37
71057;BME280;58380;48.312;9.246;2023-07-09T11:44:30;94127.81;;;30.51;29.43
71057;BME280;58380;48.312;9.246;2023-07-09T11:49:59;94142.47;;;30.43;28.92
71057;BME280;58380;48.312;9.246;2023-07-09T11:52:37;94147.16;;;30.42;33.63
71057;BME280;58380;48.312;9.246;2023-07-09T11:55:40;94136.59;;;30.37;30.51
71057;BME280;58380;48.312;9.246;2023-07-09T11:58:10;94131.88;;;30.34;29.67
71057;BME280;58380;48.312;9.246;2023-07-09T12:00:40;94132.81;;;30.45;30.37
71057;BME280;58380;48.312;9.246;2023-07-09T12:03:15;94119.97;;;30.46;27.33
71057;BME280;58380;48.312;9.246;2023-07-09T12:05:49;94110.22;;;30.45;28.09
71057;BME280;58380;48.312;9.246;2023-07-09T12:08:18;94118.97;;;30.61;29.60
71057;BME280;58380;48.312;9.246;2023-07-09T12:10:52;94130.19;;;30.56;30.09
71057;BME280;58380;48.312;9.246;2023-07-09T12:13:18;94126.63;;;30.52;31.19
71057;BME280;58380;48.312;9.246;2023-07-09T12:15:44;94074.56;;;30.23;29.45
71057;BME280;58380;48.312;9.246;2023-07-09T12:18:15;94127.16;;;30.65;30.91
71057;BME280;58380;48.312;9.246;2023-07-09T12:20:47;94102.53;;;30.54;30.61
71057;BME280;58380;48.312;9.246;2023-07-09T12:23:31;94122.97;;;30.71;26.76
71057;BME280;58380;48.312;9.246;2023-07-09T12:26:02;94119.91;;;30.76;26.68
71057;BME280;58380;48.312;9.246;2023-07-09T12:28:30;94098.34;;;30.64;25.00
71057;BME280;58380;48.312;9.246;2023-07-09T12:30:56;94120.41;;;30.85;30.28
71057;BME280;58380;48.312;9.246;2023-07-09T12:33:24;94117.69;;;30.85;31.04
71057;BME280;58380;48.312;9.246;2023-07-09T12:35:59;94120.06;;;30.90;30.50
71057;BME280;58380;48.312;9.246;2023-07-09T12:38:30;94099.75;;;30.84;29.92
71057;BME280;58380;48.312;9.246;2023-07-09T12:41:06;94111.09;;;30.90;29.93
71057;BME280;58380;48.312;9.246;2023-07-09T12:43:42;94087.97;;;30.77;31.49
71057;BME280;58380;48.312;9.246;2023-07-09T12:46:08;94093.16;;;30.85;30.82
71057;BME280;58380;48.312;9.246;2023-07-09T12:48:34;94091.66;;;30.95;30.79
71057;BME280;58380;48.312;9.246;2023-07-09T12:50:59;94095.63;;;31.05;29.91
71057;BME280;58380;48.312;9.246;2023-07-09T12:53:26;94080.75;;;30.95;27.23
71057;BME280;58380;48.312;9.246;2023-07-09T12:55:56;94092.56;;;31.10;28.78
71057;BME280;58380;48.312;9.246;2023-07-09T12:58:33;94078.22;;;31.20;28.96
71057;BME280;58380;48.312;9.246;2023-07-09T13:01:15;94080.69;;;31.36;32.33
71057;BME280;58380;48.312;9.246;2023-07-09T13:03:53;94056.16;;;31.36;31.26
71057;BME280;58380;48.312;9.246;2023-07-09T13:06:34;94066.13;;;31.69;30.45
71057;BME280;58380;48.312;9.246;2023-07-09T13:09:01;94073.31;;;31.95;30.73
71057;BME280;58380;48.312;9.246;2023-07-09T13:11:35;94050.25;;;31.93;31.57
71057;BME280;58380;48.312;9.246;2023-07-09T13:14:11;94064.78;;;32.08;29.13
71057;BME280;58380;48.312;9.246;2023-07-09T13:16:43;94055.03;;;32.17;25.68
71057;BME280;58380;48.312;9.246;2023-07-09T13:19:08;94058.09;;;32.01;26.59
71057;BME280;58380;48.312;9.246;2023-07-09T13:21:35;94056.53;;;31.97;29.22
71057;BME280;58380;48.312;9.246;2023-07-09T13:24:12;94043.22;;;31.88;29.08
71057;BME280;58380;48.312;9.246;2023-07-09T13:26:48;94063.19;;;32.03;29.59
71057;BME280;58380;48.312;9.246;2023-07-09T13:29:16;94040.91;;;31.94;28.75
71057;BME280;58380;48.312;9.246;2023-07-09T13:31:44;94064.03;;;32.25;26.86
71057;BME280;58380;48.312;9.246;2023-07-09T13:34:25;94059.41;;;32.43;27.37
71057;BME280;58380;48.312;9.246;2023-07-09T13:36:53;94044.47;;;32.12;27.11
71057;BME280;58380;48.312;9.246;2023-07-09T13:39:22;94055.00;;;32.03;26.65
71057;BME280;58380;48.312;9.246;2023-07-09T13:41:50;94062.81;;;32.08;28.57
71057;BME280;58380;48.312;9.246;2023-07-09T13:44:27;93993.59;;;31.68;28.17
71057;BME280;58380;48.312;9.246;2023-07-09T13:46:54;94038.97;;;31.94;24.80
71057;BME280;58380;48.312;9.246;2023-07-09T13:49:23;94062.44;;;32.17;25.00
71057;BME280;58380;48.312;9.246;2023-07-09T13:51:54;94061.72;;;32.31;27.58
71057;BME280;58380;48.312;9.246;2023-07-09T13:54:27;94056.25;;;32.23;24.48
71057;BME280;58380;48.312;9.246;2023-07-09T13:57:01;94062.78;;;32.05;25.36
71057;BME280;58380;48.312;9.246;2023-07-09T13:59:28;94048.25;;;31.86;28.50
71057;BME280;58380;48.312;9.246;2023-07-09T14:01:56;94043.94;;;31.81;29.96
71057;BME280;58380;48.312;9.246;2023-07-09T14:04:23;94026.34;;;31.72;29.05
71057;BME280;58380;48.312;9.246;2023-07-09T14:06:50;94041.22;;;31.78;28.25
71057;BME280;58380;48.312;9.246;2023-07-09T14:09:16;94018.84;;;31.54;29.97
71057;BME280;58380;48.312;9.246;2023-07-09T14:11:48;94031.72;;;31.57;29.26
71057;BME280;58380;48.312;9.246;2023-07-09T14:14:25;94047.38;;;31.61;29.40
71057;BME280;58380;48.312;9.246;2023-07-09T14:16:57;94055.41;;;31.43;27.37
71057;BME280;58380;48.312;9.246;2023-07-09T14:19:23;94041.00;;;31.38;27.35
71057;BME280;58380;48.312;9.246;2023-07-09T14:21:50;94053.19;;;31.55;29.21
71057;BME280;58380;48.312;9.246;2023-07-09T14:24:18;94044.31;;;31.76;30.59
71057;BME280;58380;48.312;9.246;2023-07-09T14:26:47;94042.94;;;32.11;29.87
71057;BME280;58380;48.312;9.246;2023-07-09T14:29:13;94039.91;;;32.41;30.32
71057;BME280;58380;48.312;9.246;2023-07-09T14:31:40;94040.38;;;32.79;29.32
71057;BME280;58380;48.312;9.246;2023-07-09T14:34:19;94036.06;;;33.00;24.03
71057;BME280;58380;48.312;9.246;2023-07-09T14:36:51;94022.78;;;32.84;23.15
71057;BME280;58380;48.312;9.246;2023-07-09T14:39:17;94018.50;;;32.83;25.34
71057;BME280;58380;48.312;9.246;2023-07-09T14:41:43;93995.06;;;32.96;26.55
71057;BME280;58380;48.312;9.246;2023-07-09T14:44:25;94013.81;;;33.30;25.46
71057;BME280;58380;48.312;9.246;2023-07-09T14:46:53;93988.41;;;33.33;26.80
71057;BME280;58380;48.312;9.246;2023-07-09T14:49:21;93997.38;;;33.37;26.18
71057;BME280;58380;48.312;9.246;2023-07-09T14:51:48;93989.56;;;33.32;26.19
71057;BME280;58380;48.312;9.246;2023-07-09T14:54:28;94002.06;;;33.37;26.23
71057;BME280;58380;48.312;9.246;2023-07-09T14:56:56;94007.94;;;33.35;25.63
71057;BME280;58380;48.312;9.246;2023-07-09T14:59:24;93997.03;;;33.06;24.34
71057;BME280;58380;48.312;9.246;2023-07-09T15:01:51;93989.59;;;33.28;26.31
71057;BME280;58380;48.312;9.246;2023-07-09T15:06:51;93973.97;;;33.25;26.72
71057;BME280;58380;48.312;9.246;2023-07-09T15:09:20;93994.63;;;33.59;24.41
71057;BME280;58380;48.312;9.246;2023-07-09T15:11:49;93979.72;;;33.67;25.86
71057;BME280;58380;48.312;9.246;2023-07-09T15:14:18;93995.72;;;33.83;25.02
71057;BME280;58380;48.312;9.246;2023-07-09T15:16:43;94010.06;;;34.05;24.24
71057;BME280;58380;48.312;9.246;2023-07-09T15:19:12;94003.09;;;33.89;22.63
71057;BME280;58380;48.312;9.246;2023-07-09T15:21:38;93990.22;;;33.79;23.42
71057;BME280;58380;48.312;9.246;2023-07-09T15:24:05;94006.63;;;33.90;23.70
71057;BME280;58380;48.312;9.246;2023-07-09T15:26:35;94011.59;;;34.20;24.91
71057;BME280;58380;48.312;9.246;2023-07-09T15:29:01;94003.72;;;34.29;23.80
71057;BME280;58380;48.312;9.246;2023-07-09T15:31:26;94000.13;;;34.43;24.81
71057;BME280;58380;48.312;9.246;2023-07-09T15:33:51;93989.50;;;34.52;23.56
71057;BME280;58380;48.312;9.246;2023-07-09T15:36:17;94005.41;;;34.72;24.11
71057;BME280;58380;48.312;9.246;2023-07-09T15:38:44;93991.25;;;34.81;23.68
71057;BME280;58380;48.312;9.246;2023-07-09T15:41:14;94000.41;;;34.63;21.26
71057;BME280;58380;48.312;9.246;2023-07-09T15:43:44;93998.53;;;34.46;22.28
71057;BME280;58380;48.312;9.246;2023-07-09T15:46:16;93977.00;;;34.48;22.89
71057;BME280;58380;48.312;9.246;2023-07-09T15:48:46;93991.97;;;34.88;24.97
71057;BME280;58380;48.312;9.246;2023-07-09T15:51:13;93991.00;;;34.64;21.73
71057;BME280;58380;48.312;9.246;2023-07-09T15:53:38;93995.69;;;34.64;24.42
71057;BME280;58380;48.312;9.246;2023-07-09T15:56:06;93991.41;;;34.59;22.52
71057;BME280;58380;48.312;9.246;2023-07-09T15:58:44;93966.81;;;34.45;21.93
71057;BME280;58380;48.312;9.246;2023-07-09T16:01:12;93984.63;;;34.78;21.85
71057;BME280;58380;48.312;9.246;2023-07-09T16:03:43;93977.72;;;34.59;24.60
71057;BME280;58380;48.312;9.246;2023-07-09T16:06:11;93957.44;;;34.42;24.07
71057;BME280;58380;48.312;9.246;2023-07-09T16:08:36;93968.44;;;34.39;23.65
71057;BME280;58380;48.312;9.246;2023-07-09T16:11:09;93970.88;;;34.22;23.99
71057;BME280;58380;48.312;9.246;2023-07-09T16:13:41;93971.28;;;34.17;26.44
71057;BME280;58380;48.312;9.246;2023-07-09T16:16:13;93947.38;;;33.26;24.96
71057;BME280;58380;48.312;9.246;2023-07-09T16:18:43;93965.38;;;32.77;26.23
71057;BME280;58380;48.312;9.246;2023-07-09T16:21:30;93979.00;;;32.44;25.41
71057;BME280;58380;48.312;9.246;2023-07-09T16:23:58;93967.22;;;32.01;27.33
71057;BME280;58380;48.312;9.246;2023-07-09T16:26:26;93956.88;;;31.48;26.11
71057;BME280;58380;48.312;9.246;2023-07-09T16:28:52;93942.69;;;31.24;27.10
71057;BME280;58380;48.312;9.246;2023-07-09T16:31:17;93979.81;;;31.40;30.08
71057;BME280;58380;48.312;9.246;2023-07-09T16:33:43;93975.25;;;30.95;28.85
71057;BME280;58380;48.312;9.246;2023-07-09T16:36:17;93985.19;;;30.77;29.97
71057;BME280;58380;48.312;9.246;2023-07-09T16:38:44;93975.59;;;30.46;31.88
71057;BME280;58380;48.312;9.246;2023-07-09T16:41:11;93987.97;;;30.36;30.89
71057;BME280;58380;48.312;9.246;2023-07-09T16:43:40;93989.41;;;30.26;31.84
71057;BME280;58380;48.312;9.246;2023-07-09T16:46:15;93977.56;;;30.12;30.82
71057;BME280;58380;48.312;9.246;2023-07-09T16:48:43;93989.16;;;30.05;31.79
71057;BME280;58380;48.312;9.246;2023-07-09T16:51:09;93923.56;;;29.46;34.08
71057;BME280;58380;48.312;9.246;2023-07-09T16:53:34;93964.63;;;29.67;32.75
71057;BME280;58380;48.312;9.246;2023-07-09T16:55:59;93964.50;;;29.60;35.32
71057;BME280;58380;48.312;9.246;2023-07-09T16:58:30;93941.22;;;29.29;33.84
71057;BME280;58380;48.312;9.246;2023-07-09T17:00:58;93952.50;;;29.31;35.22
71057;BME280;58380;48.312;9.246;2023-07-09T17:03:23;93965.72;;;29.33;34.34
71057;BME280;58380;48.312;9.246;2023-07-09T17:05:49;93956.97;;;29.16;35.64
71057;BME280;58380;48.312;9.246;2023-07-09T17:08:15;93977.34;;;29.30;36.56
71057;BME280;58380;48.312;9.246;2023-07-09T17:10:41;93976.03;;;29.20;37.34
71057;BME280;58380;48.312;9.246;2023-07-09T17:13:14;93973.53;;;29.08;37.16
71057;BME280;58380;48.312;9.246;2023-07-09T17:15:45;93973.47;;;29.04;39.49
71057;BME280;58380;48.312;9.246;2023-07-09T17:18:25;93967.63;;;29.02;39.97
71057;BME280;58380;48.312;9.246;2023-07-09T17:20:55;93952.22;;;28.83;40.47
71057;BME280;58380;48.312;9.246;2023-07-09T17:23:23;93922.44;;;28.64;40.06
71057;BME280;58380;48.312;9.246;2023-07-09T17:25:54;93971.81;;;28.96;39.33
71057;BME280;58380;48.312;9.246;2023-07-09T17:28:26;93971.09;;;29.02;38.25
71057;BME280;58380;48.312;9.246;2023-07-09T17:30:57;93977.72;;;29.01;38.18
71057;BME280;58380;48.312;9.246;2023-07-09T17:33:23;93970.31;;;29.02;40.60
71057;BME280;58380;48.312;9.246;2023-07-09T17:35:50;93943.09;;;28.72;37.49
71057;BME280;58380;48.312;9.246;2023-07-09T17:38:23;93979.75;;;28.81;41.05
71057;BME280;58380;48.312;9.246;2023-07-09T17:40:52;93978.78;;;28.70;40.68
71057;BME280;58380;48.312;9.246;2023-07-09T17:43:20;93978.59;;;28.59;39.82
71057;BME280;58380;48.312;9.246;2023-07-09T17:45:48;93975.34;;;28.50;39.64
71057;BME280;58380;48.312;9.246;2023-07-09T17:48:17;93984.94;;;28.44;40.53
71057;BME280;58380;48.312;9.246;2023-07-09T17:50:47;93962.06;;;28.22;41.12
71057;BME280;58380;48.312;9.246;2023-07-09T17:53:16;93971.22;;;28.14;40.30
71057;BME280;58380;48.312;9.246;2023-07-09T17:55:44;93982.22;;;28.21;39.90
71057;BME280;58380;48.312;9.246;2023-07-09T17:58:12;93982.22;;;28.21;42.63
71057;BME280;58380;48.312;9.246;2023-07-09T18:00:40;93919.41;;;27.80;41.35
71057;BME280;58380;48.312;9.246;2023-07-09T18:03:09;93954.19;;;27.94;40.16
71057;BME280;58380;48.312;9.246;2023-07-09T18:05:36;93974.97;;;28.06;39.81
71057;BME280;58380;48.312;9.246;2023-07-09T18:08:04;93986.09;;;28.01;40.66
71057;BME280;58380;48.312;9.246;2023-07-09T18:10:34;93957.19;;;27.69;41.28
71057;BME280;58380;48.312;9.246;2023-07-09T18:13:07;93958.88;;;27.58;42.39
71057;BME280;58380;48.312;9.246;2023-07-09T18:15:38;93972.69;;;27.49;40.54
71057;BME280;58380;48.312;9.246;2023-07-09T18:18:05;93982.09;;;27.56;40.54
71057;BME280;58380;48.312;9.246;2023-07-09T18:20:32;93973.59;;;27.57;40.31
71057;BME280;58380;48.312;9.246;2023-07-09T18:22:57;93987.81;;;27.70;39.45
71057;BME280;58380;48.312;9.246;2023-07-09T18:25:24;93990.16;;;27.71;39.92
71057;BME280;58380;48.312;9.246;2023-07-09T18:27:55;93972.38;;;27.54;41.65
71057;BME280;58380;48.312;9.246;2023-07-09T18:30:25;93991.53;;;27.62;43.72
71057;BME280;58380;48.312;9.246;2023-07-09T18:32:54;93978.56;;;27.36;44.92
71057;BME280;58380;48.312;9.246;2023-07-09T18:35:29;93988.06;;;27.26;44.84
71057;BME280;58380;48.312;9.246;2023-07-09T18:38:09;93983.72;;;27.05;43.83
71057;BME280;58380;48.312;9.246;2023-07-09T18:40:37;93988.13;;;26.94;44.85
71057;BME280;58380;48.312;9.246;2023-07-09T18:43:16;93974.94;;;26.77;44.54
71057;BME280;58380;48.312;9.246;2023-07-09T18:45:46;93998.16;;;26.78;43.86
71057;BME280;58380;48.312;9.246;2023-07-09T18:48:15;93985.44;;;26.62;43.27
71057;BME280;58380;48.312;9.246;2023-07-09T18:50:46;93994.25;;;26.59;43.36
71057;BME280;58380;48.312;9.246;2023-07-09T18:53:14;93978.78;;;26.44;43.83
71057;BME280;58380;48.312;9.246;2023-07-09T18:55:43;93999.41;;;26.49;44.56
71057;BME280;58380;48.312;9.246;2023-07-09T18:58:10;93972.03;;;26.22;45.04
71057;BME280;58380;48.312;9.246;2023-07-09T19:00:39;93981.53;;;26.16;45.66
71057;BME280;58380;48.312;9.246;2023-07-09T19:03:04;94008.38;;;26.21;46.55
71057;BME280;58380;48.312;9.246;2023-07-09T19:05:30;94011.13;;;26.09;47.75
71057;BME280;58380;48.312;9.246;2023-07-09T19:07:57;94016.28;;;25.86;51.06
71057;BME280;58380;48.312;9.246;2023-07-09T19:10:26;94019.19;;;25.65;52.61
71057;BME280;58380;48.312;9.246;2023-07-09T19:12:58;93997.31;;;25.29;52.95
71057;BME280;58380;48.312;9.246;2023-07-09T19:15:29;94015.13;;;25.18;51.96
71057;BME280;58380;48.312;9.246;2023-07-09T19:17:59;93983.06;;;24.80;53.51
71057;BME280;58380;48.312;9.246;2023-07-09T19:20:25;94007.13;;;24.85;54.39
71057;BME280;58380;48.312;9.246;2023-07-09T19:22:51;94005.91;;;24.58;55.23
71057;BME280;58380;48.312;9.246;2023-07-09T19:25:20;93964.00;;;24.15;53.48
71057;BME280;58380;48.312;9.246;2023-07-09T19:27:53;94029.69;;;24.43;53.37
71057;BME280;58380;48.312;9.246;2023-07-09T19:30:21;94031.25;;;24.32;55.23
71057;BME280;58380;48.312;9.246;2023-07-09T19:32:50;94017.78;;;23.99;56.29
71057;BME280;58380;48.312;9.246;2023-07-09T19:35:23;94014.00;;;23.58;58.13
71057;BME280;58380;48.312;9.246;2023-07-09T19:37:50;94043.94;;;23.44;58.68
71057;BME280;58380;48.312;9.246;2023-07-09T19:40:19;94046.66;;;23.35;58.96
71057;BME280;58380;48.312;9.246;2023-07-09T19:42:47;94046.78;;;23.18;60.06
71057;BME280;58380;48.312;9.246;2023-07-09T19:45:19;93991.94;;;22.72;60.61
71057;BME280;58380;48.312;9.246;2023-07-09T19:47:55;94053.06;;;23.01;60.82
71057;BME280;58380;48.312;9.246;2023-07-09T19:50:28;94053.44;;;22.82;62.43
71057;BME280;58380;48.312;9.246;2023-07-09T19:52:57;94047.56;;;22.50;63.86
71057;BME280;58380;48.312;9.246;2023-07-09T19:55:27;94066.25;;;22.47;64.33
71057;BME280;58380;48.312;9.246;2023-07-09T19:57:58;94051.09;;;22.16;64.55
71057;BME280;58380;48.312;9.246;2023-07-09T20:00:23;94007.56;;;21.75;64.39
71057;BME280;58380;48.312;9.246;2023-07-09T20:02:49;94036.09;;;22.06;63.22
71057;BME280;58380;48.312;9.246;2023-07-09T20:05:19;94053.97;;;22.11;63.00
71057;BME280;58380;48.312;9.246;2023-07-09T20:07:50;94050.81;;;22.17;62.50
71057;BME280;58380;48.312;9.246;2023-07-09T20:10:18;94063.00;;;22.15;65.21
71057;BME280;58380;48.312;9.246;2023-07-09T20:12:46;94068.25;;;21.85;65.99
71057;BME280;58380;48.312;9.246;2023-07-09T20:15:20;94072.19;;;21.70;66.31
71057;BME280;58380;48.312;9.246;2023-07-09T20:17:49;94060.03;;;21.56;66.16
71057;BME280;58380;48.312;9.246;2023-07-09T20:20:17;94052.59;;;21.52;64.95
71057;BME280;58380;48.312;9.246;2023-07-09T20:22:42;94058.78;;;21.62;64.35
71057;BME280;58380;48.312;9.246;2023-07-09T20:25:14;94039.16;;;21.35;67.33
71057;BME280;58380;48.312;9.246;2023-07-09T20:27:45;94053.66;;;21.25;67.95
71057;BME280;58380;48.312;9.246;2023-07-09T20:30:12;94067.53;;;21.19;68.10
71057;BME280;58380;48.312;9.246;2023-07-09T20:32:40;94068.63;;;21.09;67.77
71057;BME280;58380;48.312;9.246;2023-07-09T20:35:33;94065.28;;;20.95;69.64
71057;BME280;58380;48.312;9.246;2023-07-09T20:37:58;94046.75;;;20.67;69.19
71057;BME280;58380;48.312;9.246;2023-07-09T20:40:24;94062.34;;;20.65;70.30
71057;BME280;58380;48.312;9.246;2023-07-09T20:42:53;94029.69;;;20.32;70.56
71057;BME280;58380;48.312;9.246;2023-07-09T20:45:23;94070.94;;;20.44;71.23
71057;BME280;58380;48.312;9.246;2023-07-09T20:47:52;94049.81;;;20.20;72.11
71057;BME280;58380;48.312;9.246;2023-07-09T20:50:20;94051.53;;;20.16;71.65
71057;BME280;58380;48.312;9.246;2023-07-09T20:52:48;94069.69;;;20.19;72.06
71057;BME280;58380;48.312;9.246;2023-07-09T20:55:17;94046.44;;;20.06;72.31
71057;BME280;58380;48.312;9.246;2023-07-09T20:57:45;94047.91;;;19.90;73.65
71057;BME280;58380;48.312;9.246;2023-07-09T21:00:21;94038.50;;;19.70;73.63
71057;BME280;58380;48.312;9.246;2023-07-09T21:02:48;94046.19;;;19.71;72.78
71057;BME280;58380;48.312;9.246;2023-07-09T21:05:16;94043.44;;;19.63;73.90
71057;BME280;58380;48.312;9.246;2023-07-09T21:07:45;94047.25;;;19.48;75.42
71057;BME280;58380;48.312;9.246;2023-07-09T21:10:20;94032.25;;;19.24;75.84
71057;BME280;58380;48.312;9.246;2023-07-09T21:12:48;94036.81;;;19.24;75.91
71057;BME280;58380;48.312;9.246;2023-07-09T21:15:22;94016.44;;;19.14;76.12
71057;BME280;58380;48.312;9.246;2023-07-09T21:17:49;94051.53;;;19.12;76.63
71057;BME280;58380;48.312;9.246;2023-07-09T21:20:16;94052.53;;;19.03;77.79
71057;BME280;58380;48.312;9.246;2023-07-09T21:22:43;94031.47;;;18.87;77.34